• Join FlightAware (Why Join?)
  • Login
  • US Flag 
10:29PM EDT


 

Airport Tracker/Info


-or-


 

Live Flight TrackerFlight Track Log ✈ AAY861 ✈ 13-Jun-2014 ✈ KPGD - KPIE

Flight Track Log - Related Links

Times and Time Zones

All times are in EDT time to prevent confusion due to time zone crossing. See the AAY861 flight status page for this flight to view local times or setup timezone preferences in your user account.

Time Position Orientation Groundspeed Altitude Reporting Facility
EDT Latitude Longitude Course Direction KTS MPH feet Rate Location/Type
12:36PM 26.8903 -81.9350 310° West 243 280 2,400  Level Miami Center
12:37PM 26.9567 -81.9200 11° North 245 282 3,800 780 Climbing Miami Center
12:38PM 27.0278 -81.9250 356° North 268 308 4,100 1,560 Climbing Miami Center
12:39PM 27.1042 -81.9386 351° North 274 315 7,100 2,700 Climbing Miami Center
12:40PM 27.1756 -81.9747 336° Northwest 285 328 9,800 1,800 Climbing Miami Center
12:41PM 27.3249 -81.9832 310° West  Level FlightAware Approximate
12:41PM 27.2714 -82.0289 333° Northwest 322 371 10,900  Level Miami Center
12:42PM 27.3564 -82.0781 333° Northwest 338 389 10,900  Level Miami Center
12:43PM 27.4414 -82.1267 333° Northwest 338 389 10,900  Level Miami Center
12:44PM 27.5069 -82.1992 316° Northwest 330 380 10,900 -300 Level Miami Center
12:45PM 27.5608 -82.2814 306° West 326 375 10,400 -540 Descending Miami Center
12:46PM 27.5883 -82.3714 289° West 302 348 9,900 -720 Descending Miami Center
12:48PM 27.6144 -82.4489 291° West 269 310 9,000 -1,020 Descending Miami Center
12:49PM 27.6500 -82.5500 292° West 255 293 7,800 -960 Descending Tampa TRACON
12:50PM 27.6667 -82.6167 286° West 258 297 7,100 -900 Descending Tampa TRACON
12:51PM 27.7000 -82.6833 299° West 264 304 6,100 -1,020 Descending Tampa TRACON
12:52PM 27.7833 -82.7167 341° North 279 321 5,100 -960 Descending Tampa TRACON
12:53PM 27.8500 -82.7500 336° Northwest 271 312 4,200 -840 Descending Tampa TRACON
12:54PM 27.9333 -82.7667 350° North 237 273 3,400 -900 Descending Tampa TRACON
12:55PM 27.9833 -82.7667 360° North 226 260 2,400 -960 Descending Tampa TRACON
12:56PM 28.0333 -82.7667 360° North 219 252 1,600 -420 Descending Tampa TRACON
12:57PM 28.0333 -82.7167 90° East 187 215 1,600 -240 Level Tampa TRACON
12:58PM 27.9833 -82.7000 164° South 130 150 1,200 -540 Descending Tampa TRACON
12:59PM 27.9500 -82.7000 180° South 130 150 600 -720 Descending Tampa TRACON
01:02PM 27.9100 -82.6875 139° Southeast  Level Estimated